Aeroporto :
LOGIN :

Iscrizione | Disclaimer

   EN    FR    IT 

 










Sommario :    VFR   VFR Marginale   IFR   IFR Intensivo   IFR Molto Intensivo
Visibilità : 
Base nubi : 
>= 8 km
>= 3000ft
5 / 8 km
1000 / 3000 ft
1500m / 5 km
500 / 1000 ft
800 / 1500m
200 / 500 ft
< 800m
< 200 ft
Simboli :   Temporali  Nebbia  Neve Forte  Precipitazioni Forti  Vento > 20 kt
SIGMETs :   Varie  Temporali  Ghiacco  Turbolenza  Onda orograficha  Ceneri Vulcaniche






- Altitudine del aeroporto : 218 ft


EGYD - RAF Cranwell

ULTIMO METAR :
  • 151220Z 04014KT 4500 -SHRA BKN015 BKN030 08/06 Q1006 TEMPO 9999 NSW FEW015 RMK GRN TEMPO BLU

METARs OBSOLETI :
  • 151215Z 03012KT 4500 -SHRA BKN022 BKN050 08/06 Q1006 TEMPO 9999 NSW FEW022 RMK GRN TEMPO BLU
  • 151150Z 03010KT 9999 FEW022 SCT050 BKN120 09/06 Q1006 BLU TEMPO SCT022 RMK BLU TEMPO WHT
  • 151121Z 02011KT 9999 FEW022 SCT150 BKN250 08/06 Q1007 NOSIG RMK BLU BLU
  • 151050Z 01011KT 9999 FEW022 BKN150 08/06 Q1007 NOSIG RMK BLU BLU
  • 151020Z 36010KT 9999 FEW022 BKN150 07/06 Q1007 NOSIG RMK BLU BLU
  • 150950Z 36011KT 9999 FEW020 BKN150 07/06 Q1007 TEMPO SCT020 RMK BLU TEMPO WHT

TAF AMD TAF EGYD
Valido dal 15 a 12 ore il 15 a 18 ore UTC


151221Z 1512/1518 03016KT 9999 FEW015 SCT028
TEMPO 1512/1518 03018G28KT SCT015
PROB30
TEMPO 1512/1517 4500 -SHRA
TEMPO 1517/1518 7000 RA SCT008



MetMap, La meteo Aeronautica in un colpo d'occhio ! - Copyright ORBIFLY Dicembre 2007 - Disclaimer

ORBIFLY MET'MAP TEAM :

Programmazione e sviluppo : Alexandra Zaïnal
Concezione e sviluppo : Baudouin d'Aumeries
Co-Programmazione e sviluppo : Marc-Olivier Méhu
Supporto tecnico e logistico : Manuel Goepfert
Aiuto per la traduzione : Arnaldo La Scala

Contatto : metmap@orbifly.com




FONTI E CREDITI :

   NOAA